Time;durP1;ratioP1;P1;durP2;ratioP2;P2;SDS_P1;SDS_P2;PMS_P1;PMS_P2;Temp;Humidity;BMP_temperature;BMP_pressure;BME280_temperature;BME280_humidity;BME280_pressure;Samples;Min_cycle;Max_cycle;Signal;HPM_P1;HPM_P2
2023/10/03 00:00:31;;;;;;;5.60;2.03;;;;;;;17.15;71.08;99599.75;5051107;28;20067;-75
2023/10/03 00:02:59;;;;;;;4.82;1.90;;;;;;;17.11;71.09;99585.09;5049990;28;20144;-75
2023/10/03 00:05:28;;;;;;;7.97;1.90;;;;;;;17.08;71.47;99580.13;5049599;28;20048;-75
2023/10/03 00:07:55;;;;;;;10.07;2.00;;;;;;;17.05;71.71;99592.09;5050168;28;20064;-76
2023/10/03 00:10:23;;;;;;;6.55;2.13;;;;;;;17.01;71.54;99587.31;5017875;28;20053;-76
2023/10/03 00:12:51;;;;;;;6.38;2.20;;;;;;;17.00;71.92;99591.88;5016917;28;20049;-74
2023/10/03 00:15:21;;;;;;;6.72;1.80;;;;;;;17.01;72.23;99592.69;5017180;28;20386;-75
2023/10/03 00:17:47;;;;;;;9.20;2.10;;;;;;;16.84;72.25;99601.09;5033543;28;20783;-75
2023/10/03 00:20:16;;;;;;;3.78;1.83;;;;;;;16.88;72.74;99598.84;5050440;28;20141;-75
2023/10/03 00:22:44;;;;;;;6.45;1.70;;;;;;;16.79;72.84;99594.63;5002129;28;20049;-76
2023/10/03 00:25:44;;;;;;;4.80;2.00;;;;;;;16.82;73.11;99602.31;5050350;28;20044;-75
2023/10/03 00:28:05;;;;;;;4.22;1.60;;;;;;;16.65;73.32;99599.13;5046920;28;20110;-75
2023/10/03 00:30:31;;;;;;;12.02;1.98;;;;;;;16.68;73.39;99601.41;5050043;28;20060;-76
2023/10/03 00:33:04;;;;;;;6.18;1.70;;;;;;;16.72;73.16;99601.84;5034105;28;20069;-75
2023/10/03 00:35:34;;;;;;;3.88;1.60;;;;;;;16.66;73.03;99602.63;5017839;28;20144;-76
2023/10/03 00:38:05;;;;;;;3.53;1.55;;;;;;;16.75;73.46;99602.28;5050023;28;20044;-76
2023/10/03 00:40:31;;;;;;;3.83;1.60;;;;;;;16.65;73.14;99606.34;5018769;28;20136;-75
2023/10/03 00:42:59;;;;;;;12.65;1.75;;;;;;;16.72;73.47;99604.53;5039584;28;20045;-76
2023/10/03 00:45:30;;;;;;;4.40;1.60;;;;;;;16.66;73.43;99602.63;5024017;28;20041;-75
2023/10/03 00:48:08;;;;;;;2.88;1.50;;;;;;;16.63;73.61;99603.88;5039913;28;20055;-76
2023/10/03 00:50:35;;;;;;;5.22;2.20;;;;;;;16.58;73.73;99600.94;5038029;28;20099;-76
2023/10/03 00:53:06;;;;;;;5.47;1.50;;;;;;;16.64;74.15;99610.88;5020283;28;20041;-76
2023/10/03 00:55:33;;;;;;;4.28;1.73;;;;;;;16.53;73.99;99613.25;5020452;28;20061;-77
2023/10/03 01:00:40;;;;;;;7.03;1.70;;;;;;;16.48;75.09;99611.16;5054380;28;20376;-77
2023/10/03 01:03:24;;;;;;;5.85;1.63;;;;;;;16.56;75.28;99604.81;5036639;28;20049;-77
2023/10/03 01:05:52;;;;;;;5.95;2.10;;;;;;;16.37;75.34;99613.56;5019980;28;20508;-77
2023/10/03 01:08:18;;;;;;;4.55;1.90;;;;;;;16.32;75.45;99608.78;5036373;28;20057;-77
2023/10/03 01:10:44;;;;;;;6.22;1.80;;;;;;;16.33;75.43;99606.91;5036425;28;20045;-76
2023/10/03 01:13:12;;;;;;;5.28;1.70;;;;;;;16.33;75.64;99607.75;5019873;28;20041;-75
2023/10/03 01:15:40;;;;;;;3.33;1.63;;;;;;;16.33;75.86;99607.75;5020148;28;20432;-75
2023/10/03 01:18:12;;;;;;;4.13;1.80;;;;;;;16.27;76.00;99599.66;5053129;28;20194;-76
2023/10/03 01:20:42;;;;;;;4.32;1.80;;;;;;;16.20;76.12;99604.16;5021079;28;20542;-76
2023/10/03 01:23:15;;;;;;;5.13;1.98;;;;;;;16.19;76.68;99611.34;5003723;28;20045;-77
2023/10/03 01:25:43;;;;;;;5.35;1.77;;;;;;;16.15;76.44;99611.94;5052451;28;20041;-78
2023/10/03 01:28:13;;;;;;;5.40;1.80;;;;;;;16.19;76.52;99605.97;5036190;28;20051;-76
2023/10/03 01:30:43;;;;;;;2.70;1.52;;;;;;;16.22;76.82;99607.47;5003856;28;20033;-75
2023/10/03 01:33:11;;;;;;;3.83;1.60;;;;;;;16.19;77.05;99610.53;5020231;28;20037;-75
2023/10/03 01:35:38;;;;;;;4.45;1.73;;;;;;;16.19;76.82;99614.03;5052871;28;20057;-76
2023/10/03 01:38:07;;;;;;;4.05;1.50;;;;;;;16.15;76.95;99611.94;5035936;28;20055;-75
2023/10/03 01:40:33;;;;;;;5.22;1.70;;;;;;;16.16;76.92;99614.41;5019652;28;20052;-75
2023/10/03 01:42:59;;;;;;;3.10;1.50;;;;;;;16.15;76.77;99620.81;5001543;28;20049;-74
2023/10/03 01:45:27;;;;;;;5.32;1.33;;;;;;;16.24;76.88;99608.06;5034666;28;20151;-74
2023/10/03 01:47:58;;;;;;;5.68;1.98;;;;;;;16.19;76.85;99613.22;5001815;28;20189;-75
2023/10/03 01:50:28;;;;;;;6.10;1.90;;;;;;;16.20;77.11;99613.03;5002579;28;20095;-75
2023/10/03 01:52:55;;;;;;;5.45;1.42;;;;;;;16.14;77.14;99619.16;5034062;28;20471;-75
2023/10/03 01:55:21;;;;;;;4.38;1.60;;;;;;;16.11;77.21;99616.88;5017831;28;20071;-75
2023/10/03 01:57:50;;;;;;;2.17;1.45;;;;;;;16.20;77.32;99609.50;5001627;28;20127;-75
2023/10/03 02:00:26;;;;;;;4.10;1.45;;;;;;;16.14;77.25;99611.13;4994496;28;20062;-75
2023/10/03 02:02:54;;;;;;;2.78;1.48;;;;;;;15.96;77.63;99620.66;4963801;28;20053;-74
2023/10/03 02:05:23;;;;;;;2.78;1.40;;;;;;;16.00;77.95;99612.03;4978477;28;20068;-74
2023/10/03 02:07:55;;;;;;;4.38;1.67;;;;;;;15.84;78.21;99606.94;4946830;28;20080;-76
2023/10/03 02:10:22;;;;;;;5.95;1.55;;;;;;;15.76;78.68;99622.31;4978532;28;20046;-75
2023/10/03 02:12:51;;;;;;;4.20;1.45;;;;;;;15.70;79.41;99613.19;4962314;28;20057;-75
2023/10/03 02:15:26;;;;;;;5.47;1.48;;;;;;;15.61;79.63;99608.13;5010941;28;20137;-75
2023/10/03 02:17:55;;;;;;;3.20;1.27;;;;;;;15.51;80.27;99613.81;4994672;28;20053;-75
2023/10/03 02:20:25;;;;;;;7.40;1.67;;;;;;;15.40;80.93;99619.66;4988161;28;20041;-75
2023/10/03 02:22:55;;;;;;;2.65;1.45;;;;;;;15.27;81.46;99624.81;4998258;28;20069;-75
2023/10/03 02:25:26;;;;;;;4.03;1.50;;;;;;;15.22;82.25;99628.06;4965963;28;20152;-75
2023/10/03 02:27:55;;;;;;;7.05;1.50;;;;;;;15.11;82.83;99631.22;4981857;28;20131;-76
2023/10/03 02:30:25;;;;;;;4.90;1.50;;;;;;;15.12;83.18;99632.06;4981566;28;20050;-76
2023/10/03 02:32:53;;;;;;;4.03;1.63;;;;;;;15.08;83.49;99636.13;4997674;28;20049;-76
2023/10/03 02:35:24;;;;;;;4.43;1.90;;;;;;;15.05;83.92;99631.16;4997501;28;20060;-76
2023/10/03 02:38:04;;;;;;;6.18;1.60;;;;;;;14.91;84.68;99619.44;4990203;28;20053;-76
2023/10/03 02:40:32;;;;;;;5.43;1.67;;;;;;;14.65;85.46;99634.31;5014818;28;20069;-76
2023/10/03 02:43:00;;;;;;;7.13;2.10;;;;;;;14.61;85.77;99639.19;5031405;28;20049;-76
2023/10/03 02:45:28;;;;;;;3.42;1.63;;;;;;;14.57;85.86;99643.25;5031373;28;20041;-76
2023/10/03 02:48:29;;;;;;;3.90;1.75;;;;;;;14.61;86.46;99644.53;5014891;28;20037;-76
2023/10/03 02:50:50;;;;;;;4.63;1.90;;;;;;;14.56;86.92;99640.75;5017110;28;20061;-77
2023/10/03 02:53:19;;;;;;;5.07;2.00;;;;;;;14.48;87.26;99640.84;4982020;28;20041;-75
2023/10/03 02:55:46;;;;;;;3.20;1.75;;;;;;;14.40;87.76;99636.41;4998344;28;20525;-75
2023/10/03 02:58:13;;;;;;;5.32;2.22;;;;;;;14.25;88.54;99632.88;4981991;28;20468;-76
2023/10/03 03:00:42;;;;;;;8.13;2.40;;;;;;;14.20;88.93;99637.06;5014954;28;20061;-78
2023/10/03 03:03:10;;;;;;;5.10;2.17;;;;;;;14.18;89.68;99637.25;5015154;28;20051;-75
2023/10/03 03:05:37;;;;;;;7.40;2.40;;;;;;;14.17;90.00;99643.59;5030224;28;20456;-76
2023/10/03 03:08:21;;;;;;;7.45;2.50;;;;;;;14.24;89.82;99646.41;5015490;28;20045;-77
2023/10/03 03:10:57;;;;;;;4.75;2.15;;;;;;;14.24;90.41;99652.56;5016965;28;20064;-76
2023/10/03 03:13:31;;;;;;;4.93;2.40;;;;;;;14.27;90.28;99646.88;4982426;28;20041;-75
2023/10/03 03:16:00;;;;;;;8.02;2.50;;;;;;;14.13;89.17;99647.63;4998462;28;20037;-75
2023/10/03 03:18:31;;;;;;;4.25;2.45;;;;;;;14.15;89.49;99647.44;5014755;28;20041;-75
2023/10/03 03:21:01;;;;;;;6.30;2.47;;;;;;;14.08;89.49;99636.69;4998321;28;20106;-76
2023/10/03 03:23:42;;;;;;;4.32;2.63;;;;;;;14.06;90.62;99637.84;5014568;28;20103;-78
2023/10/03 03:26:17;;;;;;;6.18;2.78;;;;;;;14.05;90.77;99633.53;5030931;28;20077;-76
2023/10/03 03:28:49;;;;;;;4.90;2.40;;;;;;;14.12;90.46;99631.78;5029060;28;20053;-75
2023/10/03 03:31:25;;;;;;;6.65;2.70;;;;;;;14.00;90.83;99633.22;4996788;28;20049;-75
2023/10/03 03:33:53;;;;;;;8.90;2.83;;;;;;;14.03;90.97;99639.06;5029354;28;20053;-75
2023/10/03 03:36:22;;;;;;;5.85;2.92;;;;;;;14.02;91.41;99637.41;4980563;28;20157;-77
2023/10/03 03:38:49;;;;;;;7.82;3.45;;;;;;;14.05;91.35;99642.38;5018581;28;20479;-77
2023/10/03 03:41:16;;;;;;;8.32;3.10;;;;;;;14.12;91.06;99642.47;4972515;28;20650;-78
2023/10/03 03:43:43;;;;;;;5.60;2.75;;;;;;;14.14;90.45;99649.31;5013617;28;20049;-77
2023/10/03 03:46:10;;;;;;;4.38;2.63;;;;;;;14.19;90.30;99640.75;5013378;28;20115;-75
2023/10/03 03:48:36;;;;;;;5.38;2.80;;;;;;;14.22;90.87;99653.75;4996619;28;20095;-76
2023/10/03 03:51:08;;;;;;;9.55;2.80;;;;;;;14.28;90.09;99653.06;4964315;28;20133;-76
2023/10/03 03:53:34;;;;;;;;;;;;;;;14.48;89.47;99659.53;5014021;28;20049;-77
2023/10/03 03:56:00;;;;;;;5.55;2.75;;;;;;;14.27;89.46;99664.75;4996415;28;19916;-77
2023/10/03 03:58:26;;;;;;;6.95;2.78;;;;;;;14.15;89.31;99671.47;4996546;28;20417;-77
2023/10/03 04:00:52;;;;;;;11.52;2.70;;;;;;;14.13;89.58;99665.53;4963894;28;20061;-76
2023/10/03 04:03:23;;;;;;;8.15;2.72;;;;;;;14.13;89.82;99669.00;4996355;28;20115;-78
2023/10/03 04:05:50;;;;;;;6.85;2.60;;;;;;;14.08;89.60;99663.38;5001783;28;20080;-77
2023/10/03 04:08:18;;;;;;;7.38;2.80;;;;;;;14.08;89.35;99660.72;5029892;28;20045;-76
2023/10/03 04:10:46;;;;;;;6.93;2.80;;;;;;;14.19;89.54;99660.25;5013790;28;20045;-76
2023/10/03 04:13:16;;;;;;;6.13;2.97;;;;;;;14.06;89.34;99660.06;4997672;28;20057;-76
2023/10/03 04:15:45;;;;;;;6.88;3.33;;;;;;;14.02;89.48;99663.25;5015028;28;20061;-67
2023/10/03 04:18:12;;;;;;;10.13;3.50;;;;;;;14.01;90.12;99657.09;5034405;28;20048;-65
2023/10/03 04:20:40;;;;;;;11.95;3.70;;;;;;;14.03;90.40;99665.75;5034699;28;20136;-66
2023/10/03 04:23:08;;;;;;;7.85;3.38;;;;;;;14.08;89.82;99665.22;5034021;28;20475;-69
2023/10/03 04:25:34;;;;;;;8.18;3.17;;;;;;;14.05;90.33;99657.56;5034738;28;20041;-68
2023/10/03 04:28:16;;;;;;;7.53;3.25;;;;;;;14.26;90.07;99660.41;5038287;28;20049;-76
2023/10/03 04:30:45;;;;;;;9.88;2.95;;;;;;;14.09;89.71;99659.69;4987184;28;20348;-67
2023/10/03 04:33:17;;;;;;;7.30;3.08;;;;;;;14.04;89.33;99656.72;5034671;28;20042;-66
2023/10/03 04:35:43;;;;;;;7.75;2.95;;;;;;;14.05;89.08;99662.91;5033886;28;20115;-67
2023/10/03 04:38:08;;;;;;;7.88;2.80;;;;;;;14.09;89.03;99666.88;5017721;28;20460;-68
2023/10/03 04:40:40;;;;;;;6.32;3.25;;;;;;;14.03;88.87;99664.91;5034587;28;20103;-65
2023/10/03 04:43:14;;;;;;;10.20;3.90;;;;;;;14.07;89.01;99674.25;5034585;28;20045;-66
2023/10/03 04:45:42;;;;;;;20.92;5.28;;;;;;;14.18;88.81;99669.28;5034634;28;20041;-65
2023/10/03 04:48:10;;;;;;;7.55;3.40;;;;;;;14.08;88.32;99674.06;5034599;28;20045;-67
2023/10/03 04:50:37;;;;;;;10.98;4.68;;;;;;;14.13;88.38;99681.53;5033591;28;20140;-66
2023/10/03 04:53:05;;;;;;;12.10;3.50;;;;;;;14.03;88.14;99679.09;5034050;28;20045;-66
2023/10/03 04:55:32;;;;;;;8.23;4.25;;;;;;;13.96;89.22;99675.47;5017661;28;20482;-68
2023/10/03 04:57:57;;;;;;;9.23;3.45;;;;;;;13.94;88.74;99677.50;5016630;28;20483;-67
2023/10/03 05:00:23;;;;;;;10.23;3.28;;;;;;;13.93;89.05;99675.84;5033046;28;20057;-66
2023/10/03 05:02:53;;;;;;;6.28;3.20;;;;;;;14.10;88.75;99676.56;5033091;28;20163;-66
2023/10/03 05:05:25;;;;;;;16.73;3.47;;;;;;;14.13;88.48;99687.69;5016635;28;20087;-66
2023/10/03 05:07:58;;;;;;;9.80;3.40;;;;;;;14.06;88.64;99689.44;5034128;28;20045;-66
2023/10/03 05:10:27;;;;;;;9.00;3.20;;;;;;;13.95;89.42;99686.34;5034056;28;20041;-69
2023/10/03 05:12:52;;;;;;;13.98;3.67;;;;;;;13.88;88.90;99691.56;5016677;28;20041;-71
2023/10/03 05:15:19;;;;;;;9.00;3.60;;;;;;;13.99;88.33;99687.66;5041502;28;20045;-70
2023/10/03 05:17:47;;;;;;;7.03;3.03;;;;;;;14.06;88.85;99685.91;5051452;28;20075;-69
2023/10/03 05:20:17;;;;;;;10.02;3.40;;;;;;;14.07;88.41;99683.06;5050407;28;20102;-70
2023/10/03 05:22:46;;;;;;;8.45;3.30;;;;;;;14.13;88.11;99687.69;5017139;28;20100;-69
2023/10/03 05:25:17;;;;;;;11.43;3.72;;;;;;;14.34;87.56;99687.91;5050938;28;20055;-69
2023/10/03 05:27:48;;;;;;;5.65;3.35;;;;;;;14.31;86.82;99688.25;5049976;28;20041;-70
2023/10/03 05:30:14;;;;;;;11.65;3.65;;;;;;;14.34;86.67;99679.03;5035315;28;20044;-69
2023/10/03 05:32:44;;;;;;;6.47;3.20;;;;;;;14.64;86.21;99680.75;5052348;28;20060;-70
2023/10/03 05:35:13;;;;;;;10.45;3.47;;;;;;;14.78;85.13;99686.13;5052364;28;20145;-70
2023/10/03 05:37:40;;;;;;;13.80;3.78;;;;;;;14.95;84.47;99673.38;5019873;28;20092;-69
2023/10/03 05:40:18;;;;;;;11.70;3.70;;;;;;;15.21;83.54;99681.75;5052815;28;20049;-71
2023/10/03 05:42:47;;;;;;;7.47;3.00;;;;;;;15.46;82.30;99688.50;5002326;28;20053;-70
2023/10/03 05:45:18;;;;;;;8.00;2.83;;;;;;;15.64;81.09;99682.72;4994562;28;20549;-68
2023/10/03 05:47:45;;;;;;;9.50;3.20;;;;;;;15.61;80.17;99691.13;4977863;28;20042;-68
2023/10/03 05:50:14;;;;;;;7.50;2.65;;;;;;;15.67;80.26;99685.84;4994237;28;20084;-66
2023/10/03 05:52:44;;;;;;;9.13;2.80;;;;;;;15.64;79.13;99688.06;5010730;28;20077;-70
2023/10/03 05:55:10;;;;;;;7.53;2.60;;;;;;;15.73;78.90;99689.63;4994845;28;20045;-69
2023/10/03 05:57:41;;;;;;;5.47;2.80;;;;;;;15.76;77.15;99689.25;5011165;28;20057;-68
2023/10/03 06:00:10;;;;;;;;;;;;;;;16.12;75.85;99698.06;4979766;28;20058;-67
2023/10/03 06:02:39;;;;;;;6.07;2.50;;;;;;;15.95;75.23;99699.34;5010730;28;19921;-67
2023/10/03 06:05:06;;;;;;;5.25;2.42;;;;;;;15.95;74.77;99697.50;5010669;28;20045;-68
2023/10/03 06:07:32;;;;;;;6.55;2.40;;;;;;;16.03;73.95;99701.88;4994121;28;20073;-66
2023/10/03 06:09:58;;;;;;;7.47;2.58;;;;;;;16.09;72.97;99703.81;4977585;28;20077;-67
2023/10/03 06:12:24;;;;;;;5.63;2.38;;;;;;;16.23;72.61;99709.09;5009688;28;20038;-66
2023/10/03 06:14:51;;;;;;;6.88;2.30;;;;;;;16.40;71.36;99706.97;5029817;28;20402;-67
2023/10/03 06:17:18;;;;;;;4.10;1.75;;;;;;;16.59;70.72;99703.69;5031698;28;20391;-67
2023/10/03 06:19:44;;;;;;;5.70;2.05;;;;;;;16.61;68.61;99707.81;5030210;28;20041;-68
2023/10/03 06:22:12;;;;;;;8.63;2.33;;;;;;;16.75;68.14;99709.56;5030716;28;20817;-74
2023/10/03 06:24:39;;;;;;;6.60;2.55;;;;;;;16.99;66.41;99710.94;4998169;28;20495;-67
2023/10/03 06:27:08;;;;;;;7.60;1.80;;;;;;;17.03;65.72;99711.38;5031654;28;20041;-68
2023/10/03 06:29:41;;;;;;;4.32;2.33;;;;;;;17.13;64.47;99704.63;5013946;28;20042;-67
2023/10/03 06:32:08;;;;;;;4.55;2.15;;;;;;;17.25;64.17;99705.72;5030631;28;20120;-67
2023/10/03 06:34:33;;;;;;;9.38;2.30;;;;;;;17.54;63.75;99708.19;5031324;28;20503;-67
2023/10/03 06:37:00;;;;;;;5.65;2.20;;;;;;;17.70;62.92;99704.28;5030348;28;20045;-67
2023/10/03 06:39:26;;;;;;;6.85;2.53;;;;;;;17.86;61.61;99703.94;5031296;28;20202;-67
2023/10/03 06:41:55;;;;;;;5.75;2.00;;;;;;;17.79;59.58;99697.72;5030247;28;20057;-67
2023/10/03 06:44:22;;;;;;;3.10;1.75;;;;;;;18.08;58.13;99698.19;5016583;28;20084;-71
2023/10/03 06:46:52;;;;;;;3.92;1.88;;;;;;;18.33;56.84;99698.41;5022844;28;20045;-66
2023/10/03 06:49:22;;;;;;;7.20;1.90;;;;;;;18.50;55.45;99706.97;5066589;28;20048;-66
2023/10/03 06:51:50;;;;;;;7.70;1.90;;;;;;;18.89;54.58;99704.22;5051455;28;20059;-67
2023/10/03 06:54:16;;;;;;;3.95;1.70;;;;;;;19.14;53.75;99697.97;5050284;28;20051;-65
2023/10/03 06:56:43;;;;;;;2.88;2.15;;;;;;;19.29;52.13;99697.75;5051218;28;20041;-66
2023/10/03 06:59:10;;;;;;;4.57;1.90;;;;;;;19.43;50.51;99693.97;5051320;28;20471;-68
2023/10/03 07:01:37;;;;;;;4.35;1.73;;;;;;;19.72;49.88;99705.03;5050828;28;20053;-71
2023/10/03 07:04:07;;;;;;;5.43;1.80;;;;;;;20.30;48.96;99713.81;5032875;28;20048;-68
2023/10/03 07:06:34;;;;;;;5.03;2.10;;;;;;;20.89;47.27;99726.81;5022917;28;20041;-67
2023/10/03 07:09:01;;;;;;;3.85;1.70;;;;;;;22.19;44.47;99714.47;5040124;28;20457;-67
2023/10/03 07:11:28;;;;;;;5.10;2.20;;;;;;;24.46;39.37;99705.69;5071308;28;20102;-73
2023/10/03 07:13:54;;;;;;;5.55;1.95;;;;;;;26.91;33.87;99704.41;5022492;28;20036;-72
2023/10/03 07:16:20;;;;;;;6.35;1.85;;;;;;;28.72;29.33;99711.41;5007338;28;20037;-74
2023/10/03 07:18:46;;;;;;;8.68;2.38;;;;;;;29.97;26.80;99707.50;5047443;28;20483;-76
2023/10/03 07:21:15;;;;;;;6.25;1.90;;;;;;;30.91;24.97;99704.38;5005994;28;20124;-70
2023/10/03 07:23:42;;;;;;;7.78;1.80;;;;;;;31.89;23.03;99699.19;5022324;28;20048;-73
2023/10/03 07:26:11;;;;;;;3.40;1.80;;;;;;;33.51;21.41;99708.06;5023728;28;20053;-74
2023/10/03 07:28:38;;;;;;;3.15;2.25;;;;;;;34.45;19.90;99711.81;5022699;28;20050;-73
2023/10/03 07:31:12;;;;;;;3.35;1.77;;;;;;;35.22;18.52;99692.97;5010919;28;20037;-72
2023/10/03 07:33:43;;;;;;;3.95;1.85;;;;;;;34.82;18.28;99689.34;5019955;28;20040;-72
2023/10/03 07:36:10;;;;;;;4.55;1.95;;;;;;;33.17;19.56;99695.78;5042017;28;20037;-73
2023/10/03 07:38:35;;;;;;;4.75;1.90;;;;;;;32.58;20.46;99685.53;5026963;28;20045;-75
2023/10/03 07:41:13;;;;;;;3.03;2.13;;;;;;;31.18;21.70;99682.72;5010974;28;20060;-74
2023/10/03 07:43:40;;;;;;;4.00;1.80;;;;;;;30.56;22.17;99680.00;4979064;28;20048;-75
2023/10/03 07:46:06;;;;;;;5.05;1.90;;;;;;;29.23;22.34;99671.94;5023186;28;20098;-75
2023/10/03 07:48:31;;;;;;;6.55;1.92;;;;;;;28.89;23.18;99679.09;5029567;28;20061;-75
2023/10/03 07:50:57;;;;;;;3.72;2.00;;;;;;;26.52;26.02;99666.75;5012980;28;20041;-75
2023/10/03 07:53:23;;;;;;;2.80;1.90;;;;;;;26.44;26.16;99674.34;5014080;28;20067;-73
2023/10/03 07:55:49;;;;;;;4.57;1.85;;;;;;;28.09;25.20;99668.16;4998036;28;20151;-72
2023/10/03 07:58:19;;;;;;;6.68;2.47;;;;;;;-141.23;100.00;62281.09;4963680;28;20119;-73
2023/10/03 08:00:45;;;;;;;5.55;1.83;;;;;;;-141.23;100.00;62281.09;4974753;28;20075;-74
2023/10/03 08:03:14;;;;;;;3.78;2.15;;;;;;;-141.23;100.00;62281.09;4978871;28;20161;-73
2023/10/03 08:05:42;;;;;;;6.57;1.88;;;;;;;-141.23;100.00;62281.09;4991371;28;20081;-75
2023/10/03 08:08:09;;;;;;;4.35;1.80;;;;;;;-141.23;100.00;62281.09;4989130;28;20206;-75
2023/10/03 08:10:35;;;;;;;3.35;2.00;;;;;;;-141.23;100.00;62281.09;4987312;28;20079;-74
2023/10/03 08:13:02;;;;;;;3.50;1.90;;;;;;;-141.23;100.00;62281.09;5009083;28;20042;-70
2023/10/03 08:15:31;;;;;;;6.95;1.70;;;;;;;-141.23;100.00;62281.09;4995265;28;20103;-70
2023/10/03 08:17:58;;;;;;;2.63;1.63;;;;;;;-141.23;100.00;62281.09;4987561;28;20045;-71
2023/10/03 08:20:25;;;;;;;4.55;1.73;;;;;;;-141.23;100.00;62281.09;5009387;28;20049;-71
2023/10/03 08:22:51;;;;;;;1.88;1.30;;;;;;;-141.23;100.00;62281.09;5004041;28;20554;-71
2023/10/03 08:25:22;;;;;;;5.00;2.05;;;;;;;-141.23;100.00;62281.09;4957930;28;20045;-71
2023/10/03 08:27:52;;;;;;;3.55;1.40;;;;;;;-141.23;100.00;62281.09;4961947;28;20502;-70
2023/10/03 08:30:29;;;;;;;3.45;1.48;;;;;;;-141.23;100.00;62281.09;5008389;28;20053;-72
2023/10/03 08:33:05;;;;;;;4.32;1.50;;;;;;;-141.23;100.00;62281.09;5044540;28;20059;-71
2023/10/03 08:35:35;;;;;;;3.60;1.42;;;;;;;-141.23;100.00;62281.09;5014212;28;20088;-71
2023/10/03 08:38:06;;;;;;;4.00;1.63;;;;;;;-141.23;100.00;62281.09;5020826;28;20049;-71
2023/10/03 08:40:38;;;;;;;4.82;1.60;;;;;;;-141.23;100.00;62281.09;5049142;28;20159;-73
2023/10/03 08:43:08;;;;;;;6.80;2.58;;;;;;;-141.23;100.00;62281.09;5013878;28;20430;-71
2023/10/03 08:45:42;;;;;;;2.85;1.67;;;;;;;-141.23;100.00;62281.09;5005603;28;20041;-71
2023/10/03 08:48:09;;;;;;;5.60;1.58;;;;;;;-141.23;100.00;62281.09;5028563;28;20091;-71
2023/10/03 08:50:40;;;;;;;2.03;1.27;;;;;;;-141.23;100.00;62281.09;5014929;28;20136;-71
2023/10/03 08:53:12;;;;;;;6.57;1.70;;;;;;;-141.23;100.00;62281.09;5047927;28;20033;-71
2023/10/03 08:55:43;;;;;;;3.67;1.50;;;;;;;-141.23;100.00;62281.09;5031791;28;20045;-71
2023/10/03 08:58:13;;;;;;;3.70;1.60;;;;;;;-141.23;100.00;62281.09;5015504;28;20036;-72
2023/10/03 09:00:49;;;;;;;2.58;1.65;;;;;;;-141.23;100.00;62281.09;5013158;28;20059;-70
2023/10/03 09:03:17;;;;;;;3.00;1.73;;;;;;;-141.23;100.00;62281.09;4982816;28;20484;-72
2023/10/03 09:05:45;;;;;;;4.22;1.67;;;;;;;-141.23;100.00;62281.09;5050039;28;20372;-72
2023/10/03 09:08:15;;;;;;;7.03;1.85;;;;;;;-141.23;100.00;62281.09;5051114;28;20048;-72
2023/10/03 09:10:52;;;;;;;6.63;1.80;;;;;;;-141.23;100.00;62281.09;5035156;28;20502;-72
2023/10/03 09:13:23;;;;;;;2.92;1.50;;;;;;;-141.23;100.00;62281.09;5050472;28;20103;-71
2023/10/03 09:16:00;;;;;;;3.55;1.70;;;;;;;-141.23;100.00;62281.09;5014663;28;20049;-72
2023/10/03 09:18:40;;;;;;;4.10;1.70;;;;;;;-141.23;100.00;62281.09;5050524;28;20049;-72
2023/10/03 09:21:06;;;;;;;;;;;;;;;-141.23;100.00;62281.09;5034719;28;20445;-73
2023/10/03 09:23:39;;;;;;;5.30;1.90;;;;;;;-141.23;100.00;62281.09;5031795;28;19937;-73
2023/10/03 09:26:08;;;;;;;4.95;1.85;;;;;;;-141.23;100.00;62281.09;5050943;28;20134;-73
2023/10/03 09:28:40;;;;;;;5.90;2.03;;;;;;;-141.23;100.00;62281.09;5051957;28;20055;-73
2023/10/03 09:31:09;;;;;;;3.53;1.90;;;;;;;-141.23;100.00;62281.09;5035096;28;20048;-73
2023/10/03 09:33:39;;;;;;;3.22;2.25;;;;;;;-141.23;100.00;62281.09;5050528;28;20451;-72
2023/10/03 09:36:05;;;;;;;;;;;;;;;-141.23;100.00;62281.09;5034554;28;20087;-73
2023/10/03 09:38:42;;;;;;;2.88;1.88;;;;;;;-141.23;100.00;62281.09;5051246;28;19928;-73
2023/10/03 09:41:16;;;;;;;4.78;2.00;;;;;;;-141.23;100.00;62281.09;5018600;28;20048;-73
2023/10/03 09:43:49;;;;;;;4.70;1.98;;;;;;;-141.23;100.00;62281.09;5034501;28;20055;-73
2023/10/03 09:46:23;;;;;;;2.88;2.00;;;;;;;-141.23;100.00;62281.09;5017375;28;20044;-74
2023/10/03 09:48:54;;;;;;;4.80;2.10;;;;;;;-141.23;100.00;62281.09;5034379;28;20210;-74
2023/10/03 09:51:36;;;;;;;3.58;2.03;;;;;;;-141.23;100.00;62281.09;5050340;28;20114;-73
2023/10/03 09:54:08;;;;;;;4.65;1.90;;;;;;;-141.23;100.00;62281.09;5015202;28;20049;-73
2023/10/03 09:56:40;;;;;;;5.40;2.20;;;;;;;-141.23;100.00;62281.09;5017381;28;20045;-73
2023/10/03 09:59:08;;;;;;;4.20;2.10;;;;;;;-141.23;100.00;62281.09;5017465;28;20037;-72
2023/10/03 10:01:35;;;;;;;6.05;2.85;;;;;;;-141.23;100.00;62281.09;5019136;28;20080;-73
2023/10/03 10:04:03;;;;;;;4.05;2.60;;;;;;;-141.23;100.00;62281.09;4995542;28;20049;-73
2023/10/03 10:06:40;;;;;;;5.68;2.60;;;;;;;-141.23;100.00;62281.09;5001199;28;20046;-72
2023/10/03 10:09:23;;;;;;;6.60;2.92;;;;;;;-141.23;100.00;62281.09;4978532;28;20077;-74
2023/10/03 10:12:19;;;;;;;5.95;2.65;;;;;;;-141.23;100.00;62281.09;4951010;29;20047;-74
2023/10/03 10:15:13;;;;;;;8.30;2.90;;;;;;;-141.23;100.00;62281.09;4951761;28;20046;-72
2023/10/03 10:17:45;;;;;;;6.28;3.38;;;;;;;-141.23;100.00;62281.09;4904660;29;20043;-72
2023/10/03 10:20:17;;;;;;;6.30;2.80;;;;;;;-141.23;100.00;62281.09;4920235;29;20058;-78
2023/10/03 10:23:01;;;;;;;4.78;2.42;;;;;;;-141.23;100.00;62281.09;4901267;29;20055;-71
2023/10/03 10:25:27;;;;;;;8.18;2.80;;;;;;;-141.23;100.00;62281.09;4916998;29;20047;-72
2023/10/03 10:28:07;;;;;;;5.63;2.90;;;;;;;-141.23;100.00;62281.09;4932311;29;20055;-70
2023/10/03 10:30:34;;;;;;;8.25;4.43;;;;;;;-141.23;100.00;62281.09;4888185;29;20051;-71
2023/10/03 10:33:17;;;;;;;5.82;3.08;;;;;;;-141.23;100.00;62281.09;4923346;29;20055;-72
2023/10/03 10:35:54;;;;;;;5.55;3.65;;;;;;;-141.23;100.00;62281.09;4930798;28;20043;-71
2023/10/03 10:38:40;;;;;;;5.85;3.33;;;;;;;-141.23;100.00;62281.09;4921902;28;20578;-70
2023/10/03 10:41:22;;;;;;;6.28;3.72;;;;;;;-141.23;100.00;62281.09;4936041;28;20063;-70
2023/10/03 10:44:27;;;;;;;6.93;3.55;;;;;;;-141.23;100.00;62281.09;4987936;28;20042;-70
2023/10/03 10:47:05;;;;;;;6.50;3.30;;;;;;;-141.23;100.00;62281.09;4914769;29;20043;-71
2023/10/03 10:49:36;;;;;;;10.63;3.20;;;;;;;-141.23;100.00;62281.09;4908966;29;20077;-70
2023/10/03 10:52:06;;;;;;;5.75;3.20;;;;;;;-141.23;100.00;62281.09;4959594;28;20075;-72
2023/10/03 10:54:36;;;;;;;7.68;3.58;;;;;;;-141.23;100.00;62281.09;5018169;28;20052;-73
2023/10/03 10:57:04;;;;;;;9.07;3.85;;;;;;;-141.23;100.00;62281.09;5006782;28;20491;-73
2023/10/03 10:59:39;;;;;;;8.13;3.40;;;;;;;-141.23;100.00;62281.09;4999516;28;20045;-73
2023/10/03 11:02:17;;;;;;;9.90;3.70;;;;;;;-141.23;100.00;62281.09;4993450;28;20037;-72
2023/10/03 11:04:43;;;;;;;10.90;3.58;;;;;;;-141.23;100.00;62281.09;5003889;28;20048;-69
2023/10/03 11:07:10;;;;;;;7.40;3.20;;;;;;;-141.23;100.00;62281.09;5033768;28;20045;-69
2023/10/03 11:09:39;;;;;;;8.70;3.47;;;;;;;-141.23;100.00;62281.09;5017344;28;20095;-67
2023/10/03 11:12:06;;;;;;;9.97;3.63;;;;;;;-141.23;100.00;62281.09;5033211;28;20045;-67
2023/10/03 11:14:33;;;;;;;7.43;3.20;;;;;;;-141.23;100.00;62281.09;5017410;28;20387;-68
2023/10/03 11:17:01;;;;;;;8.50;3.00;;;;;;;-141.23;100.00;62281.09;5033516;28;20090;-69
2023/10/03 11:19:31;;;;;;;5.90;3.17;;;;;;;-141.23;100.00;62281.09;5050658;28;20428;-69
2023/10/03 11:21:58;;;;;;;12.52;3.33;;;;;;;-141.23;100.00;62281.09;5043700;28;20391;-69
2023/10/03 11:24:25;;;;;;;5.68;3.22;;;;;;;-141.23;100.00;62281.09;5028972;28;20051;-69
2023/10/03 11:26:57;;;;;;;17.70;4.00;;;;;;;-141.23;100.00;62281.09;5027665;28;20045;-70
2023/10/03 11:29:39;;;;;;;8.68;3.40;;;;;;;-141.23;100.00;62281.09;5016347;28;20052;-71
2023/10/03 11:32:32;;;;;;;7.53;3.33;;;;;;;-141.23;100.00;62281.09;5065741;28;20144;-72
2023/10/03 11:35:22;;;;;;;9.88;3.50;;;;;;;-141.23;100.00;62281.09;5025084;28;20052;-70
2023/10/03 11:37:51;;;;;;;6.45;3.38;;;;;;;-141.23;100.00;62281.09;5032162;28;20045;-70
2023/10/03 11:40:20;;;;;;;6.53;3.45;;;;;;;-141.23;100.00;62281.09;5051338;28;20590;-70
2023/10/03 11:42:48;;;;;;;15.90;4.20;;;;;;;-141.23;100.00;62281.09;5048174;28;20509;-71